createdAt,value
2023-05-14T00:01:53.699Z,14.64
2023-05-14T00:04:20.576Z,14.62
2023-05-14T00:06:47.528Z,14.65
2023-05-14T00:09:14.351Z,14.66
2023-05-14T00:11:41.222Z,14.57
2023-05-14T00:14:08.118Z,14.55
2023-05-14T00:16:35.146Z,14.58
2023-05-14T00:19:02.241Z,14.62
2023-05-14T00:21:29.322Z,14.62
2023-05-14T00:23:56.169Z,14.62
2023-05-14T00:26:23.176Z,14.57
2023-05-14T00:28:50.261Z,14.55
2023-05-14T00:31:17.193Z,14.47
2023-05-14T00:33:44.181Z,14.47
2023-05-14T00:36:11.153Z,14.53
2023-05-14T00:38:38.013Z,14.49
2023-05-14T00:41:05.102Z,14.52
2023-05-14T00:43:33.404Z,14.53
2023-05-14T00:46:01.014Z,14.52
2023-05-14T00:48:28.060Z,14.56
2023-05-14T00:50:55.334Z,14.56
2023-05-14T00:53:22.430Z,14.58
2023-05-14T00:55:50.747Z,14.63
2023-05-14T00:58:19.083Z,14.62
2023-05-14T01:03:21.498Z,14.45
2023-05-14T01:06:01.154Z,14.47
2023-05-14T01:08:54.936Z,14.30
2023-05-14T01:11:30.809Z,14.29
2023-05-14T01:14:19.327Z,14.25
2023-05-14T01:16:46.372Z,14.22
2023-05-14T01:19:44.026Z,14.31
2023-05-14T01:22:11.193Z,14.34
2023-05-14T01:24:38.155Z,14.28
2023-05-14T01:27:31.919Z,14.36
2023-05-14T01:30:11.408Z,14.25
2023-05-14T01:32:41.017Z,14.28
2023-05-14T01:35:09.816Z,14.40
2023-05-14T01:37:37.325Z,14.39
2023-05-14T01:40:05.477Z,14.45
2023-05-14T01:42:33.111Z,14.39
2023-05-14T01:45:00.110Z,14.20
2023-05-14T01:47:27.087Z,14.24
2023-05-14T01:49:54.004Z,14.02
2023-05-14T01:52:21.430Z,14.02
2023-05-14T01:54:48.966Z,14.02
2023-05-14T01:57:15.904Z,14.05
2023-05-14T01:59:42.731Z,14.13
2023-05-14T02:02:09.645Z,14.12
2023-05-14T02:04:36.625Z,14.18
2023-05-14T02:07:03.449Z,14.23
2023-05-14T02:09:30.944Z,14.28
2023-05-14T02:11:57.788Z,14.14
2023-05-14T02:14:24.603Z,14.13
2023-05-14T02:16:51.592Z,14.11
2023-05-14T02:19:19.006Z,14.03
2023-05-14T02:21:45.878Z,13.98
2023-05-14T02:24:12.945Z,13.89
2023-05-14T02:26:40.184Z,13.74
2023-05-14T02:29:07.018Z,13.64
2023-05-14T02:31:34.107Z,13.58
2023-05-14T02:34:04.929Z,13.51
2023-05-14T02:36:31.991Z,13.44
2023-05-14T02:39:00.059Z,13.46
2023-05-14T02:41:27.660Z,13.44
2023-05-14T02:43:55.090Z,13.58
2023-05-14T02:46:22.387Z,13.55
2023-05-14T02:48:49.672Z,13.37
2023-05-14T02:51:16.982Z,13.46
2023-05-14T02:53:43.836Z,13.57
2023-05-14T02:56:10.699Z,13.55
2023-05-14T02:58:37.705Z,13.38
2023-05-14T03:01:04.860Z,13.44
2023-05-14T03:03:32.243Z,13.30
2023-05-14T03:06:00.018Z,13.39
2023-05-14T03:08:27.117Z,13.34
2023-05-14T03:10:54.092Z,13.25
2023-05-14T03:13:21.406Z,13.13
2023-05-14T03:15:48.884Z,13.16
2023-05-14T03:18:15.941Z,12.88
2023-05-14T03:20:42.953Z,13.03
2023-05-14T03:23:09.948Z,13.13
2023-05-14T03:25:37.174Z,12.97
2023-05-14T03:28:04.291Z,13.16
2023-05-14T03:30:31.187Z,13.25
2023-05-14T03:32:58.661Z,13.06
2023-05-14T03:35:25.714Z,13.07
2023-05-14T03:37:53.285Z,13.01
2023-05-14T03:40:21.450Z,13.01
2023-05-14T03:42:48.832Z,13.01
2023-05-14T03:45:15.943Z,12.87
2023-05-14T03:47:42.872Z,12.85
2023-05-14T03:50:10.497Z,12.74
2023-05-14T03:52:37.710Z,12.60
2023-05-14T03:55:04.851Z,12.58
2023-05-14T03:57:31.667Z,12.69
2023-05-14T03:59:58.788Z,12.62
2023-05-14T04:02:26.205Z,12.76
2023-05-14T04:04:53.772Z,12.61
2023-05-14T04:07:20.774Z,12.64
2023-05-14T04:09:47.596Z,12.73
2023-05-14T04:12:16.820Z,12.64
2023-05-14T04:14:43.715Z,12.69
2023-05-14T04:17:10.698Z,12.78
2023-05-14T04:19:37.545Z,12.85
2023-05-14T04:22:04.631Z,12.83
2023-05-14T04:24:31.479Z,12.87
2023-05-14T04:26:58.298Z,12.96
2023-05-14T04:29:25.426Z,13.03
2023-05-14T04:31:52.398Z,12.73
2023-05-14T04:34:19.294Z,12.72
2023-05-14T04:36:46.814Z,12.69
2023-05-14T04:39:14.340Z,12.83
2023-05-14T04:41:41.544Z,12.70
2023-05-14T04:44:09.072Z,12.62
2023-05-14T04:46:35.929Z,12.55
2023-05-14T04:49:02.805Z,12.58
2023-05-14T04:51:29.646Z,12.55
2023-05-14T04:53:56.494Z,12.74
2023-05-14T04:56:23.310Z,12.66
2023-05-14T04:58:50.631Z,12.31
2023-05-14T05:01:17.556Z,12.33
2023-05-14T05:03:44.581Z,12.31
2023-05-14T05:06:11.685Z,12.49
2023-05-14T05:08:38.992Z,12.47
2023-05-14T05:11:05.934Z,12.34
2023-05-14T05:13:32.782Z,12.28
2023-05-14T05:15:59.708Z,12.42
2023-05-14T05:18:26.636Z,12.44
2023-05-14T05:20:53.646Z,12.53
2023-05-14T05:23:20.707Z,12.65
2023-05-14T05:25:47.566Z,12.77
2023-05-14T05:28:15.471Z,12.58
2023-05-14T05:30:45.142Z,12.71
2023-05-14T05:33:12.809Z,12.50
2023-05-14T05:35:39.785Z,12.67
2023-05-14T05:38:06.631Z,12.83
2023-05-14T05:40:33.674Z,12.57
2023-05-14T05:43:00.894Z,12.55
2023-05-14T05:45:27.838Z,12.81
2023-05-14T05:47:54.882Z,12.81
2023-05-14T05:50:22.841Z,12.86
2023-05-14T05:52:49.978Z,12.72
2023-05-14T05:55:16.851Z,12.72
2023-05-14T05:57:43.976Z,12.84
2023-05-14T06:00:14.443Z,12.95
2023-05-14T06:02:42.349Z,12.72
2023-05-14T06:05:10.560Z,12.91
2023-05-14T06:07:37.666Z,12.87
2023-05-14T06:10:05.135Z,12.99
2023-05-14T06:12:32.219Z,13.00
2023-05-14T06:14:59.172Z,13.18
2023-05-14T06:17:26.094Z,13.15
2023-05-14T06:19:53.437Z,12.90
2023-05-14T06:22:20.527Z,13.00
2023-05-14T06:24:48.108Z,13.24
2023-05-14T06:27:15.235Z,13.19
2023-05-14T06:29:42.067Z,13.40
2023-05-14T06:32:09.401Z,13.47
2023-05-14T06:34:36.378Z,13.63
2023-05-14T06:37:04.330Z,13.12
2023-05-14T06:39:31.205Z,13.25
2023-05-14T06:41:58.202Z,13.52
2023-05-14T06:44:25.192Z,13.63
2023-05-14T06:46:52.336Z,13.62
2023-05-14T06:49:19.425Z,13.68
2023-05-14T06:51:46.578Z,13.82
2023-05-14T06:54:13.532Z,13.83
2023-05-14T06:56:40.463Z,13.70
2023-05-14T06:59:07.432Z,13.33
2023-05-14T07:01:34.444Z,13.07
2023-05-14T07:04:01.794Z,13.34
2023-05-14T07:06:28.930Z,13.53
2023-05-14T07:08:59.557Z,13.54
2023-05-14T07:11:26.890Z,13.11
2023-05-14T07:13:53.880Z,13.35
2023-05-14T07:16:21.129Z,13.35
2023-05-14T07:18:55.921Z,13.34
2023-05-14T07:21:22.900Z,13.60
2023-05-14T07:23:49.896Z,13.62
2023-05-14T07:26:17.097Z,13.58
2023-05-14T07:28:44.231Z,13.82
2023-05-14T07:31:11.315Z,14.05
2023-05-14T07:33:38.599Z,13.98
2023-05-14T07:36:06.172Z,14.07
2023-05-14T07:38:33.275Z,13.67
2023-05-14T07:41:00.445Z,13.93
2023-05-14T07:43:27.370Z,14.10
2023-05-14T07:45:54.460Z,14.09
2023-05-14T07:48:21.396Z,14.20
2023-05-14T07:50:49.925Z,14.10
2023-05-14T07:53:16.941Z,14.29
2023-05-14T07:55:45.524Z,14.42
2023-05-14T07:58:12.543Z,14.39
2023-05-14T08:00:39.478Z,14.18
2023-05-14T08:03:17.424Z,13.95
2023-05-14T08:05:44.412Z,13.85
2023-05-14T08:08:12.642Z,13.85
2023-05-14T08:10:39.889Z,14.18
2023-05-14T08:13:07.028Z,14.46
2023-05-14T08:15:34.073Z,14.53
2023-05-14T08:18:04.023Z,14.70
2023-05-14T08:20:31.529Z,14.42
2023-05-14T08:22:59.881Z,14.52
2023-05-14T08:25:26.820Z,14.64
2023-05-14T08:27:54.410Z,14.48
2023-05-14T08:30:30.142Z,14.74
2023-05-14T08:32:58.575Z,14.52
2023-05-14T08:35:25.680Z,14.55
2023-05-14T08:37:52.996Z,14.81
2023-05-14T08:40:20.853Z,14.99
2023-05-14T08:42:48.912Z,15.04
2023-05-14T08:45:21.146Z,15.36
2023-05-14T08:47:52.993Z,15.32
2023-05-14T08:50:23.068Z,15.53
2023-05-14T08:52:51.517Z,15.24
2023-05-14T08:55:19.500Z,15.43
2023-05-14T08:57:46.618Z,15.59
2023-05-14T09:00:15.526Z,15.27
2023-05-14T09:02:45.204Z,15.28
2023-05-14T09:05:12.685Z,15.66
2023-05-14T09:07:39.672Z,15.81
2023-05-14T09:10:09.201Z,16.16
2023-05-14T09:12:37.972Z,16.27
2023-05-14T09:15:05.358Z,16.02
2023-05-14T09:17:33.827Z,16.90
2023-05-14T09:20:02.348Z,16.45
2023-05-14T09:22:33.286Z,17.16
2023-05-14T09:25:12.677Z,16.14
2023-05-14T09:27:39.886Z,16.21
2023-05-14T09:30:11.827Z,16.51
2023-05-14T09:32:40.708Z,15.93
2023-05-14T09:35:19.109Z,16.08
2023-05-14T09:37:48.456Z,16.15
2023-05-14T09:40:16.689Z,16.05
2023-05-14T09:42:43.979Z,16.17
2023-05-14T09:45:11.837Z,16.13
2023-05-14T09:47:40.031Z,16.49
2023-05-14T09:50:08.415Z,16.48
2023-05-14T09:52:36.744Z,15.99
2023-05-14T09:55:04.345Z,16.09
2023-05-14T09:57:31.358Z,16.58
2023-05-14T09:59:58.759Z,16.64
2023-05-14T10:02:30.607Z,16.27
2023-05-14T10:05:03.229Z,16.24
2023-05-14T10:07:37.722Z,15.84
2023-05-14T10:10:08.802Z,15.96
2023-05-14T10:12:40.594Z,16.03
2023-05-14T10:15:16.566Z,15.64
2023-05-14T10:17:49.611Z,16.21
2023-05-14T10:20:18.671Z,16.52
2023-05-14T10:22:46.800Z,16.42
2023-05-14T10:25:14.700Z,16.47
2023-05-14T10:27:42.689Z,16.04
2023-05-14T10:30:14.553Z,15.88
2023-05-14T10:32:42.626Z,15.80
2023-05-14T10:35:17.749Z,15.92
2023-05-14T10:37:46.504Z,16.11
2023-05-14T10:40:14.210Z,15.90
2023-05-14T10:42:43.982Z,16.22
2023-05-14T10:45:15.611Z,17.02
2023-05-14T10:47:44.778Z,16.95
2023-05-14T10:50:14.774Z,16.86
2023-05-14T10:52:46.064Z,16.97
2023-05-14T10:55:15.361Z,16.61
2023-05-14T10:57:45.341Z,16.48
2023-05-14T11:00:14.931Z,16.66
2023-05-14T11:02:44.084Z,16.85
2023-05-14T11:05:16.202Z,17.28
2023-05-14T11:07:44.338Z,17.31
2023-05-14T11:10:14.022Z,17.09
2023-05-14T11:12:43.469Z,17.22
2023-05-14T11:15:28.420Z,17.09
2023-05-14T11:17:55.645Z,16.64
2023-05-14T11:20:22.975Z,17.16
2023-05-14T11:22:53.481Z,17.35
2023-05-14T11:25:21.986Z,17.85
2023-05-14T11:27:50.772Z,17.56
2023-05-14T11:30:20.286Z,17.47
2023-05-14T11:32:49.312Z,17.65
2023-05-14T11:35:18.159Z,17.27
2023-05-14T11:37:57.514Z,17.14
2023-05-14T11:40:24.625Z,17.26
2023-05-14T11:42:53.658Z,17.63
2023-05-14T11:45:27.988Z,17.39
2023-05-14T11:47:55.123Z,17.32
2023-05-14T11:50:25.052Z,17.58
2023-05-14T11:52:57.603Z,17.49
2023-05-14T11:55:24.751Z,17.55
2023-05-14T11:57:51.902Z,17.74
2023-05-14T12:00:22.299Z,17.30
2023-05-14T12:02:50.632Z,17.13
2023-05-14T12:05:17.856Z,17.33
2023-05-14T12:07:46.159Z,17.32
2023-05-14T12:10:13.874Z,17.52
2023-05-14T12:12:41.057Z,17.60
2023-05-14T12:15:13.755Z,17.66
2023-05-14T12:17:41.548Z,17.78
2023-05-14T12:20:12.599Z,17.47
2023-05-14T12:22:42.253Z,17.52
2023-05-14T12:25:17.405Z,17.21
2023-05-14T12:27:45.851Z,17.27
2023-05-14T12:30:21.176Z,17.10
2023-05-14T12:32:53.169Z,17.59
2023-05-14T12:35:23.033Z,17.55
2023-05-14T12:37:50.293Z,17.60
2023-05-14T12:40:18.791Z,17.60
2023-05-14T12:42:45.924Z,17.43
2023-05-14T12:45:13.090Z,17.54
2023-05-14T12:47:40.130Z,17.43
2023-05-14T12:50:08.753Z,17.67
2023-05-14T12:52:39.318Z,18.25
2023-05-14T12:55:09.969Z,17.77
2023-05-14T12:57:38.880Z,17.53
2023-05-14T13:00:08.242Z,17.28
2023-05-14T13:02:43.105Z,17.06
2023-05-14T13:05:13.854Z,17.39
2023-05-14T13:07:42.204Z,17.34
2023-05-14T13:10:09.901Z,17.13
2023-05-14T13:12:37.104Z,17.19
2023-05-14T13:15:04.548Z,17.09
2023-05-14T13:17:31.665Z,17.07
2023-05-14T13:19:59.039Z,17.05
2023-05-14T13:22:26.047Z,16.70
2023-05-14T13:24:53.575Z,16.73
2023-05-14T13:27:21.564Z,16.84
2023-05-14T13:29:48.429Z,16.66
2023-05-14T13:32:15.927Z,16.72
2023-05-14T13:34:44.161Z,16.46
2023-05-14T13:37:11.566Z,16.49
2023-05-14T13:39:39.811Z,16.62
2023-05-14T13:42:08.190Z,16.46
2023-05-14T13:44:36.884Z,16.71
2023-05-14T13:47:04.172Z,16.81
2023-05-14T13:49:31.636Z,16.52
2023-05-14T13:51:58.741Z,16.64
2023-05-14T13:54:25.699Z,16.73
2023-05-14T13:56:52.541Z,17.22
2023-05-14T13:59:20.699Z,16.96
2023-05-14T14:01:50.767Z,17.09
2023-05-14T14:04:17.973Z,16.86
2023-05-14T14:06:44.841Z,17.06
2023-05-14T14:09:14.548Z,16.81
2023-05-14T14:11:41.683Z,16.90
2023-05-14T14:14:08.552Z,17.11
2023-05-14T14:16:36.432Z,17.21
2023-05-14T14:19:04.045Z,16.86
2023-05-14T14:21:32.295Z,17.30
2023-05-14T14:23:59.862Z,17.13
2023-05-14T14:26:28.497Z,17.26
2023-05-14T14:28:56.206Z,17.17
2023-05-14T14:31:23.384Z,16.81
2023-05-14T14:33:50.252Z,16.64
2023-05-14T14:36:17.809Z,16.78
2023-05-14T14:38:44.846Z,16.76
2023-05-14T14:41:12.523Z,16.65
2023-05-14T14:43:41.235Z,16.54
2023-05-14T14:46:10.394Z,16.50
2023-05-14T14:48:41.798Z,16.52
2023-05-14T14:51:09.938Z,16.23
2023-05-14T14:53:37.369Z,16.28
2023-05-14T14:56:05.032Z,16.22
2023-05-14T14:58:33.317Z,16.22
2023-05-14T15:01:01.426Z,16.16
2023-05-14T15:03:29.100Z,16.25
2023-05-14T15:05:56.286Z,16.32
2023-05-14T15:08:26.835Z,16.26
2023-05-14T15:10:54.904Z,16.34
2023-05-14T15:13:22.331Z,16.14
2023-05-14T15:15:51.279Z,16.18
2023-05-14T15:18:18.692Z,16.13
2023-05-14T15:20:45.683Z,16.21
2023-05-14T15:23:14.041Z,16.10
2023-05-14T15:25:41.254Z,15.99
2023-05-14T15:28:08.267Z,15.99
2023-05-14T15:30:36.765Z,15.97
2023-05-14T15:33:03.820Z,15.93
2023-05-14T15:35:31.138Z,15.92
2023-05-14T15:37:58.128Z,15.95
2023-05-14T15:40:25.541Z,15.89
2023-05-14T15:42:53.013Z,15.96
2023-05-14T15:45:19.957Z,15.83
2023-05-14T15:47:47.115Z,15.76
2023-05-14T15:50:15.282Z,15.70
2023-05-14T15:52:42.500Z,15.66
2023-05-14T15:55:10.163Z,15.52
2023-05-14T15:57:38.313Z,15.68
2023-05-14T16:00:13.401Z,15.59
2023-05-14T16:02:40.991Z,15.52
2023-05-14T16:05:09.955Z,15.51
2023-05-14T16:07:39.132Z,15.42
2023-05-14T16:10:07.213Z,15.46
2023-05-14T16:12:34.156Z,15.43
2023-05-14T16:15:01.671Z,15.40
2023-05-14T16:17:30.703Z,15.43
2023-05-14T16:19:58.150Z,15.41
2023-05-14T16:22:25.735Z,15.44
2023-05-14T16:24:52.573Z,15.39
2023-05-14T16:27:19.554Z,15.41
2023-05-14T16:29:48.273Z,15.43
2023-05-14T16:32:15.230Z,15.40
2023-05-14T16:34:42.279Z,15.44
2023-05-14T16:37:11.961Z,15.37
2023-05-14T16:39:40.330Z,15.33
2023-05-14T16:42:07.502Z,15.37
2023-05-14T16:44:35.037Z,15.33
2023-05-14T16:47:02.431Z,15.27
2023-05-14T16:49:29.513Z,15.28
2023-05-14T16:51:56.866Z,15.24
2023-05-14T16:54:24.205Z,15.27
2023-05-14T16:56:51.978Z,15.25
2023-05-14T16:59:19.349Z,15.29
2023-05-14T17:01:49.635Z,15.23
2023-05-14T17:04:18.394Z,15.19
2023-05-14T17:06:47.150Z,15.29
2023-05-14T17:09:16.582Z,15.16
2023-05-14T17:11:43.633Z,15.14
2023-05-14T17:14:10.735Z,15.09
2023-05-14T17:16:39.579Z,15.10
2023-05-14T17:19:06.677Z,15.10
2023-05-14T17:21:34.387Z,15.00
2023-05-14T17:24:01.476Z,15.09
2023-05-14T17:26:29.694Z,15.04
2023-05-14T17:28:57.054Z,15.16
2023-05-14T17:31:25.345Z,15.03
2023-05-14T17:33:54.767Z,15.10
2023-05-14T17:36:22.414Z,15.15
2023-05-14T17:38:49.534Z,15.11
2023-05-14T17:41:16.741Z,15.02
2023-05-14T17:43:44.019Z,15.03
2023-05-14T17:46:11.008Z,14.99
2023-05-14T17:48:38.283Z,15.02
2023-05-14T17:51:05.384Z,15.00
2023-05-14T17:53:33.466Z,14.94
2023-05-14T17:56:01.106Z,14.96
2023-05-14T17:58:28.501Z,14.94
2023-05-14T18:00:55.569Z,14.85
2023-05-14T18:03:25.999Z,14.88
2023-05-14T18:05:53.605Z,14.84
2023-05-14T18:08:23.537Z,14.89
2023-05-14T18:10:52.266Z,14.88
2023-05-14T18:13:19.337Z,14.90
2023-05-14T18:15:48.847Z,14.96
2023-05-14T18:18:19.016Z,14.88
2023-05-14T18:20:48.870Z,14.89
2023-05-14T18:23:19.459Z,15.00
2023-05-14T18:25:46.513Z,14.93
2023-05-14T18:28:13.976Z,15.01
2023-05-14T18:30:43.803Z,15.04
2023-05-14T18:33:10.781Z,15.03
2023-05-14T18:35:38.034Z,15.02
2023-05-14T18:38:05.529Z,15.09
2023-05-14T18:40:32.580Z,15.08
2023-05-14T18:43:00.296Z,15.16
2023-05-14T18:45:27.830Z,15.11
2023-05-14T18:47:55.658Z,15.12
2023-05-14T18:50:22.799Z,15.04
2023-05-14T18:52:50.791Z,15.04
2023-05-14T18:55:17.818Z,15.11
2023-05-14T18:57:44.863Z,15.12
2023-05-14T19:00:12.551Z,15.17
2023-05-14T19:02:39.817Z,15.29
2023-05-14T19:05:08.856Z,15.07
2023-05-14T19:07:37.877Z,15.08
2023-05-14T19:10:06.140Z,15.08
2023-05-14T19:12:33.656Z,15.05
2023-05-14T19:15:00.676Z,14.97
2023-05-14T19:17:29.460Z,14.96
2023-05-14T19:19:56.697Z,14.90
2023-05-14T19:22:23.754Z,14.90
2023-05-14T19:24:51.717Z,14.90
2023-05-14T19:27:22.063Z,14.91
2023-05-14T19:29:49.690Z,14.94
2023-05-14T19:32:16.795Z,14.84
2023-05-14T19:34:44.728Z,14.82
2023-05-14T19:37:12.328Z,14.85
2023-05-14T19:39:39.350Z,14.85
2023-05-14T19:42:07.252Z,14.86
2023-05-14T19:44:34.938Z,14.93
2023-05-14T19:47:02.050Z,14.88
2023-05-14T19:49:29.102Z,14.82
2023-05-14T19:51:56.168Z,14.88
2023-05-14T19:54:23.468Z,14.85
2023-05-14T19:56:50.554Z,14.75
2023-05-14T19:59:17.471Z,14.84
2023-05-14T20:01:44.677Z,14.84
2023-05-14T20:04:11.842Z,14.83
2023-05-14T20:06:40.540Z,14.77
2023-05-14T20:09:07.578Z,14.74
2023-05-14T20:11:34.687Z,14.63
2023-05-14T20:14:01.937Z,14.60
2023-05-14T20:16:29.085Z,14.61
2023-05-14T20:18:56.829Z,14.64
2023-05-14T20:21:24.954Z,14.62
2023-05-14T20:23:51.800Z,14.66
2023-05-14T20:26:18.707Z,14.63
2023-05-14T20:28:45.701Z,14.65
2023-05-14T20:31:12.720Z,14.70
2023-05-14T20:33:39.948Z,14.72
2023-05-14T20:36:07.097Z,14.69
2023-05-14T20:38:35.234Z,14.74
2023-05-14T20:41:02.087Z,14.76
2023-05-14T20:43:29.071Z,14.86
2023-05-14T20:45:57.484Z,14.91
2023-05-14T20:48:24.466Z,15.01
2023-05-14T20:50:51.291Z,15.08
2023-05-14T20:53:18.149Z,15.10
2023-05-14T20:55:45.131Z,15.12
2023-05-14T20:58:12.037Z,14.97
2023-05-14T21:00:39.427Z,15.07
2023-05-14T21:03:06.749Z,14.98
2023-05-14T21:05:34.980Z,14.96
2023-05-14T21:08:01.852Z,15.06
2023-05-14T21:10:28.838Z,15.02
2023-05-14T21:12:55.717Z,15.02
2023-05-14T21:15:23.014Z,15.05
2023-05-14T21:17:50.364Z,14.97
2023-05-14T21:20:17.410Z,14.96
2023-05-14T21:22:44.231Z,14.95
2023-05-14T21:25:11.440Z,14.94
2023-05-14T21:27:38.392Z,14.90
2023-05-14T21:30:06.052Z,15.03
2023-05-14T21:32:33.144Z,14.97
2023-05-14T21:35:00.009Z,15.00
2023-05-14T21:37:26.935Z,14.94
2023-05-14T21:39:53.834Z,15.01
2023-05-14T21:42:21.282Z,15.12
2023-05-14T21:44:48.175Z,15.08
2023-05-14T21:47:16.343Z,15.15
2023-05-14T21:49:43.565Z,15.14
2023-05-14T21:52:10.969Z,15.04
2023-05-14T21:54:37.809Z,15.11
2023-05-14T21:57:04.859Z,15.08
2023-05-14T21:59:31.779Z,15.17
2023-05-14T22:04:28.641Z,15.08
2023-05-14T22:06:56.064Z,15.11
2023-05-14T22:09:22.942Z,15.06
2023-05-14T22:11:49.900Z,15.06
2023-05-14T22:14:16.732Z,15.09
2023-05-14T22:16:43.750Z,15.12
2023-05-14T22:19:10.613Z,14.99
2023-05-14T22:21:37.462Z,14.94
2023-05-14T22:24:04.464Z,14.95
2023-05-14T22:26:31.353Z,14.98
2023-05-14T22:28:58.280Z,15.08
2023-05-14T22:31:25.323Z,15.08
2023-05-14T22:33:52.289Z,15.13
2023-05-14T22:36:19.138Z,15.01
2023-05-14T22:38:46.021Z,15.15
2023-05-14T22:41:12.971Z,15.15
2023-05-14T22:43:39.965Z,15.18
2023-05-14T22:46:06.942Z,15.20
2023-05-14T22:48:33.778Z,15.11
2023-05-14T22:51:00.660Z,15.10
2023-05-14T22:53:27.632Z,15.13
2023-05-14T22:55:54.528Z,15.06
2023-05-14T22:58:21.460Z,14.94
2023-05-14T23:00:48.332Z,15.01
2023-05-14T23:03:15.355Z,15.07
2023-05-14T23:05:42.317Z,15.02
2023-05-14T23:08:09.308Z,15.09
2023-05-14T23:10:36.226Z,15.11
2023-05-14T23:13:03.984Z,15.08
2023-05-14T23:15:30.943Z,15.06
2023-05-14T23:17:57.854Z,15.04
2023-05-14T23:20:24.753Z,15.00
2023-05-14T23:22:52.295Z,14.93
2023-05-14T23:25:19.129Z,14.85
2023-05-14T23:27:46.057Z,14.90
2023-05-14T23:30:13.276Z,14.84
2023-05-14T23:32:40.219Z,14.98
2023-05-14T23:35:07.429Z,15.00
2023-05-14T23:37:36.064Z,15.03
2023-05-14T23:40:03.797Z,14.96
2023-05-14T23:42:30.880Z,15.01
2023-05-14T23:44:57.890Z,15.04
2023-05-14T23:47:24.860Z,15.11
2023-05-14T23:49:51.806Z,14.91
2023-05-14T23:52:18.740Z,15.00
2023-05-14T23:54:45.690Z,15.06
2023-05-14T23:57:14.617Z,15.06
2023-05-14T23:59:41.637Z,14.99
